Time;durP1;ratioP1;P1;durP2;ratioP2;P2;SDS_P1;SDS_P2;PMS_P1;PMS_P2;Temp;Humidity;BMP_temperature;BMP_pressure;BME280_temperature;BME280_humidity;BME280_pressure;Samples;Min_cycle;Max_cycle;Signal;HPM_P1;HPM_P2
2023/10/01 00:00:31;;;;;;;7.83;3.80;;;13.60;99.90;;;;;;4991751;28;20310;-77
2023/10/01 00:02:59;;;;;;;5.97;3.30;;;13.60;99.90;;;;;;4992712;28;20333;-78
2023/10/01 00:05:26;;;;;;;12.17;3.67;;;13.60;99.90;;;;;;4967621;28;20945;-79
2023/10/01 00:07:54;;;;;;;6.17;3.30;;;13.60;99.90;;;;;;4993369;28;20317;-79
2023/10/01 00:10:22;;;;;;;6.73;3.40;;;13.60;99.90;;;;;;5007137;28;20840;-79
2023/10/01 00:12:50;;;;;;;6.20;3.00;;;13.60;99.90;;;;;;5008592;28;20249;-78
2023/10/01 00:15:21;;;;;;;10.90;3.60;;;13.60;99.90;;;;;;4983882;28;20305;-79
2023/10/01 00:17:49;;;;;;;6.60;3.07;;;13.70;99.90;;;;;;4976826;28;20774;-78
2023/10/01 00:20:20;;;;;;;11.83;3.07;;;13.50;99.90;;;;;;4991833;28;20323;-78
2023/10/01 00:22:49;;;;;;;9.43;3.60;;;13.60;99.90;;;;;;4966205;28;20287;-77
2023/10/01 00:25:17;;;;;;;6.80;3.50;;;13.60;99.90;;;;;;4979933;28;20227;-78
2023/10/01 00:27:45;;;;;;;7.67;3.80;;;13.60;99.90;;;;;;4984755;28;20941;-77
2023/10/01 00:30:12;;;;;;;9.27;4.03;;;13.60;99.90;;;;;;4977511;28;20219;-78
2023/10/01 00:32:40;;;;;;;6.60;3.10;;;13.60;99.90;;;;;;4983334;28;20234;-79
2023/10/01 00:35:10;;;;;;;6.60;3.30;;;13.50;99.90;;;;;;4983058;28;20269;-79
2023/10/01 00:37:40;;;;;;;9.80;3.23;;;13.50;99.90;;;;;;4989401;28;20575;-79
2023/10/01 00:40:08;;;;;;;8.43;3.43;;;13.50;99.90;;;;;;4982951;28;20229;-79
2023/10/01 00:42:36;;;;;;;9.33;3.87;;;13.50;99.90;;;;;;4984555;28;20238;-80
2023/10/01 00:45:03;;;;;;;6.73;3.47;;;13.50;99.90;;;;;;4980983;28;20230;-79
2023/10/01 00:47:33;;;;;;;7.07;3.10;;;13.50;99.90;;;;;;4999807;28;20226;-78
2023/10/01 00:50:01;;;;;;;7.50;3.40;;;13.50;99.90;;;;;;4994517;28;20278;-78
2023/10/01 00:52:29;;;;;;;9.43;3.77;;;13.50;99.90;;;;;;4992664;28;20229;-78
2023/10/01 00:54:58;;;;;;;10.33;3.97;;;13.50;99.90;;;;;;4987946;28;20701;-79
2023/10/01 00:57:26;;;;;;;7.10;3.03;;;13.50;99.90;;;;;;5006892;28;20658;-78
2023/10/01 00:59:53;;;;;;;6.03;3.13;;;13.40;99.90;;;;;;4982511;28;20216;-78
2023/10/01 01:02:22;;;;;;;6.53;3.37;;;13.40;99.90;;;;;;4988033;28;20788;-78
2023/10/01 01:05:05;;;;;;;5.83;2.90;;;13.40;99.90;;;;;;4980437;28;20233;-79
2023/10/01 01:07:35;;;;;;;6.90;3.20;;;13.40;99.90;;;;;;4977155;28;20767;-79
2023/10/01 01:10:04;;;;;;;9.33;3.60;;;13.40;99.90;;;;;;4995894;28;20235;-78
2023/10/01 01:12:32;;;;;;;5.50;2.80;;;13.40;99.90;;;;;;4990469;28;20310;-79
2023/10/01 01:15:00;;;;;;;5.30;3.10;;;13.40;99.90;;;;;;4980321;28;20222;-78
2023/10/01 01:17:27;;;;;;;6.23;3.10;;;13.40;99.90;;;;;;4979715;28;20232;-77
2023/10/01 01:19:55;;;;;;;6.00;3.40;;;13.40;99.90;;;;;;4978270;28;20504;-78
2023/10/01 01:22:29;;;;;;;6.10;3.20;;;13.40;99.90;;;;;;4982315;28;20235;-78
2023/10/01 01:25:00;;;;;;;6.60;3.17;;;13.40;99.90;;;;;;4996278;28;20739;-78
2023/10/01 01:27:31;;;;;;;5.77;3.00;;;13.40;99.90;;;;;;4996074;28;20245;-78
2023/10/01 01:29:58;;;;;;;5.97;3.60;;;13.40;99.90;;;;;;4982080;28;20250;-78
2023/10/01 01:32:25;;;;;;;14.43;3.30;;;13.40;99.90;;;;;;4975860;28;20247;-78
2023/10/01 01:34:54;;;;;;;8.83;3.40;;;13.40;99.90;;;;;;4998593;28;20222;-77
2023/10/01 01:37:30;;;;;;;5.03;3.07;;;13.40;99.90;;;;;;4991538;28;20231;-78
2023/10/01 01:39:59;;;;;;;5.03;3.13;;;13.40;99.90;;;;;;4982066;28;20243;-77
2023/10/01 01:42:28;;;;;;;6.83;3.50;;;13.40;99.90;;;;;;4985221;28;20247;-78
2023/10/01 01:47:36;;;;;;;8.77;3.40;;;13.30;99.90;;;;;;4993433;28;20940;-78
2023/10/01 01:50:17;;;;;;;7.67;3.70;;;13.30;99.90;;;;;;4989622;28;20221;-78
2023/10/01 01:52:45;;;;;;;9.07;3.47;;;13.40;99.90;;;;;;4996537;28;20322;-78
2023/10/01 01:55:23;;;;;;;8.87;3.20;;;13.40;99.90;;;;;;4983740;28;20239;-79
2023/10/01 01:58:06;;;;;;;7.20;3.53;;;13.40;99.90;;;;;;4984670;28;20242;-78
2023/10/01 02:00:34;;;;;;;9.23;3.70;;;13.40;99.90;;;;;;4978646;28;20657;-79
2023/10/01 02:03:10;;;;;;;7.97;3.77;;;13.40;99.90;;;;;;4972946;28;20226;-78
2023/10/01 02:05:41;;;;;;;5.00;3.03;;;13.40;99.90;;;;;;4987077;28;20229;-78
2023/10/01 02:08:09;;;;;;;10.33;3.70;;;13.40;99.90;;;;;;5009921;28;20318;-77
2023/10/01 02:10:44;;;;;;;7.70;3.07;;;13.40;99.90;;;;;;5009140;28;20297;-78
2023/10/01 02:13:14;;;;;;;9.10;3.70;;;13.30;99.90;;;;;;4997873;28;20312;-78
2023/10/01 02:15:41;;;;;;;8.47;3.60;;;13.30;99.90;;;;;;4992362;28;20230;-79
2023/10/01 02:18:09;;;;;;;6.27;3.30;;;13.30;99.90;;;;;;4978346;28;20243;-78
2023/10/01 02:20:36;;;;;;;6.63;3.37;;;13.30;99.90;;;;;;4987210;28;20229;-79
2023/10/01 02:23:04;;;;;;;9.10;3.60;;;13.30;99.90;;;;;;4982202;28;20254;-79
2023/10/01 02:25:37;;;;;;;6.17;3.30;;;13.30;99.90;;;;;;5009210;28;20877;-78
2023/10/01 02:28:14;;;;;;;7.30;3.20;;;13.30;99.90;;;;;;4991759;28;20647;-78
2023/10/01 02:30:41;;;;;;;5.80;3.50;;;13.30;99.90;;;;;;5009837;28;20268;-78
2023/10/01 02:33:18;;;;;;;7.23;3.70;;;13.40;99.90;;;;;;4992060;28;20254;-78
2023/10/01 02:35:50;;;;;;;11.40;3.80;;;13.30;99.90;;;;;;4992802;28;20771;-78
2023/10/01 02:41:07;;;;;;;6.60;3.30;;;13.30;99.90;;;;;;5005401;28;20218;-76
2023/10/01 02:43:41;;;;;;;7.70;3.47;;;13.30;99.90;;;;;;4981155;28;20252;-78
2023/10/01 02:46:11;;;;;;;8.30;3.77;;;13.30;99.90;;;;;;5000561;28;20220;-78
2023/10/01 02:48:40;;;;;;;10.00;3.87;;;13.30;99.90;;;;;;4978028;28;20254;-77
2023/10/01 02:51:16;;;;;;;8.20;3.93;;;13.30;99.90;;;;;;5002800;28;20297;-77
2023/10/01 02:53:43;;;;;;;8.43;4.10;;;13.30;99.90;;;;;;4989268;28;20236;-78
2023/10/01 02:56:12;;;;;;;6.40;3.37;;;13.40;99.90;;;;;;4990645;28;20885;-78
2023/10/01 02:58:49;;;;;;;8.47;3.80;;;13.30;99.90;;;;;;4986744;28;20228;-78
2023/10/01 03:01:17;;;;;;;7.87;3.83;;;13.40;99.90;;;;;;4987145;28;20247;-78
2023/10/01 03:03:43;;;;;;;10.70;3.63;;;13.40;99.90;;;;;;4985575;28;20231;-79
2023/10/01 03:06:10;;;;;;;8.27;3.70;;;13.40;99.90;;;;;;4999319;28;20251;-79
2023/10/01 03:11:24;;;;;;;7.60;3.53;;;13.30;99.90;;;;;;4996799;28;20230;-79
2023/10/01 03:13:54;;;;;;;8.70;4.00;;;13.30;99.90;;;;;;4981715;28;20217;-79
2023/10/01 03:16:42;;;;;;;8.27;3.67;;;13.40;99.90;;;;;;4978361;28;20668;-78
2023/10/01 03:19:18;;;;;;;8.60;3.33;;;13.40;99.90;;;;;;4996326;28;20794;-78
2023/10/01 03:24:30;;;;;;;5.23;3.67;;;13.30;99.90;;;;;;4981485;28;20241;-78
2023/10/01 03:26:59;;;;;;;9.87;3.90;;;13.40;99.90;;;;;;4969857;28;20236;-78
2023/10/01 03:29:34;;;;;;;9.67;3.70;;;13.40;99.90;;;;;;4969092;28;20247;-78
2023/10/01 03:32:27;;;;;;;9.27;3.90;;;13.30;99.90;;;;;;4971266;28;20332;-78
2023/10/01 03:34:52;;;;;;;9.57;3.63;;;13.40;99.90;;;;;;4990093;28;20321;-78
2023/10/01 03:37:19;;;;;;;8.00;3.60;;;13.30;99.90;;;;;;4988509;28;20641;-79
2023/10/01 03:39:50;;;;;;;12.67;4.13;;;13.30;99.90;;;;;;4974095;28;20257;-78
2023/10/01 03:42:18;;;;;;;7.83;3.67;;;13.30;99.90;;;;;;4968375;28;20227;-77
2023/10/01 03:47:43;;;;;;;8.90;3.57;;;13.30;99.90;;;;;;4980757;28;20243;-78
2023/10/01 03:50:15;;;;;;;9.93;4.53;;;13.30;99.90;;;;;;4985995;28;20236;-77
2023/10/01 03:52:51;;;;;;;8.63;4.40;;;13.30;99.90;;;;;;4988538;28;20308;-77
2023/10/01 03:55:26;;;;;;;7.67;4.03;;;13.30;99.90;;;;;;5003714;28;20221;-77
2023/10/01 03:58:06;;;;;;;9.07;4.60;;;13.30;99.90;;;;;;4985886;28;20318;-78
2023/10/01 04:00:41;;;;;;;7.93;4.10;;;13.30;99.90;;;;;;4983596;28;20247;-78
2023/10/01 04:03:08;;;;;;;11.37;4.50;;;13.20;99.90;;;;;;4998453;28;20222;-77
2023/10/01 04:05:37;;;;;;;11.67;5.07;;;13.20;99.90;;;;;;4968218;28;20308;-77
2023/10/01 04:08:07;;;;;;;9.50;4.30;;;13.20;99.90;;;;;;5002381;28;20701;-77
2023/10/01 04:10:35;;;;;;;11.27;4.70;;;13.20;99.90;;;;;;4969957;28;20229;-76
2023/10/01 04:13:12;;;;;;;9.03;4.10;;;13.10;99.90;;;;;;4968599;28;20227;-77
2023/10/01 04:15:43;;;;;;;9.60;4.40;;;13.10;99.90;;;;;;4993828;28;20644;-78
2023/10/01 04:18:19;;;;;;;8.20;4.33;;;13.10;99.90;;;;;;5002045;28;20231;-79
2023/10/01 04:20:49;;;;;;;9.60;4.60;;;13.10;99.90;;;;;;5006830;28;20240;-79
2023/10/01 04:23:23;;;;;;;9.30;4.80;;;13.00;99.90;;;;;;4987862;28;20221;-78
2023/10/01 04:25:51;;;;;;;11.70;4.87;;;12.90;99.90;;;;;;4970093;28;20854;-78
2023/10/01 04:28:19;;;;;;;8.07;4.23;;;12.90;99.90;;;;;;4985776;28;20329;-79
2023/10/01 04:30:51;;;;;;;10.83;5.07;;;12.90;99.90;;;;;;4969954;28;20262;-78
2023/10/01 04:33:19;;;;;;;8.13;5.00;;;12.90;99.90;;;;;;4985940;28;20231;-78
2023/10/01 04:35:55;;;;;;;10.57;5.10;;;12.80;99.90;;;;;;5005445;28;20231;-78
2023/10/01 04:38:26;;;;;;;8.97;4.80;;;12.80;99.90;;;;;;5005492;28;20710;-77
2023/10/01 04:40:54;;;;;;;7.97;4.53;;;12.80;99.90;;;;;;5006138;28;20238;-77
2023/10/01 04:43:21;;;;;;;10.77;4.87;;;12.70;99.90;;;;;;4988713;28;20237;-77
2023/10/01 04:45:52;;;;;;;8.10;4.63;;;12.70;99.90;;;;;;5006448;28;20255;-77
2023/10/01 04:48:23;;;;;;;8.07;4.57;;;12.70;99.90;;;;;;4987204;28;20244;-77
2023/10/01 04:50:53;;;;;;;8.83;5.33;;;12.60;99.90;;;;;;4980028;28;20243;-79
2023/10/01 04:53:21;;;;;;;10.50;5.30;;;12.60;99.90;;;;;;4985936;28;20236;-77
2023/10/01 04:56:00;;;;;;;9.73;5.20;;;12.60;99.90;;;;;;4984886;28;20307;-77
2023/10/01 04:58:32;;;;;;;10.73;5.43;;;12.60;99.90;;;;;;4986481;28;20241;-77
2023/10/01 05:01:01;;;;;;;10.33;4.97;;;12.50;99.90;;;;;;4967763;28;20274;-77
2023/10/01 05:03:38;;;;;;;7.30;4.90;;;12.50;99.90;;;;;;4966235;28;20232;-77
2023/10/01 05:06:09;;;;;;;8.50;4.90;;;12.50;99.90;;;;;;4967021;28;20319;-78
2023/10/01 05:08:39;;;;;;;8.53;5.50;;;12.40;99.90;;;;;;4966672;28;20232;-77
2023/10/01 05:11:10;;;;;;;10.70;5.80;;;12.50;99.90;;;;;;5002233;28;20687;-78
2023/10/01 05:13:39;;;;;;;10.13;5.37;;;12.50;99.90;;;;;;5002810;28;20287;-77
2023/10/01 05:16:08;;;;;;;9.53;5.60;;;12.50;99.90;;;;;;4985542;28;20227;-77
2023/10/01 05:18:35;;;;;;;10.67;5.43;;;12.60;99.90;;;;;;4987267;28;20224;-78
2023/10/01 05:21:04;;;;;;;9.27;5.57;;;12.50;99.90;;;;;;5005717;28;20229;-76
2023/10/01 05:23:32;;;;;;;10.50;5.87;;;12.50;99.90;;;;;;4979692;28;20242;-77
2023/10/01 05:25:59;;;;;;;13.87;5.97;;;12.50;99.90;;;;;;4985269;28;20237;-78
2023/10/01 05:28:34;;;;;;;11.17;6.37;;;12.50;99.90;;;;;;5003167;28;20256;-78
2023/10/01 05:31:05;;;;;;;9.97;6.77;;;12.50;99.90;;;;;;4986249;28;20245;-77
2023/10/01 05:33:34;;;;;;;11.43;6.23;;;12.60;99.90;;;;;;5004908;28;20311;-78
2023/10/01 05:36:04;;;;;;;12.27;7.90;;;12.60;99.90;;;;;;4987823;28;20232;-78
2023/10/01 05:38:33;;;;;;;13.07;7.53;;;12.60;99.90;;;;;;5009084;28;20271;-78
2023/10/01 05:41:03;;;;;;;13.47;7.37;;;12.60;99.90;;;;;;4991519;28;20228;-77
2023/10/01 05:43:35;;;;;;;13.97;8.20;;;12.70;99.90;;;;;;4990722;28;20225;-78
2023/10/01 05:46:08;;;;;;;13.57;8.20;;;12.60;99.90;;;;;;4990784;28;20223;-78
2023/10/01 05:48:37;;;;;;;15.40;8.23;;;12.70;99.90;;;;;;5006980;28;20236;-76
2023/10/01 05:51:06;;;;;;;14.13;8.67;;;12.70;99.90;;;;;;5005383;28;20588;-76
2023/10/01 05:53:33;;;;;;;13.67;8.33;;;12.80;99.90;;;;;;4987397;28;20250;-76
2023/10/01 05:56:07;;;;;;;14.70;7.67;;;12.80;99.90;;;;;;4980172;28;20249;-76
2023/10/01 05:58:34;;;;;;;14.77;7.93;;;12.80;99.90;;;;;;4987566;28;20323;-76
2023/10/01 06:01:13;;;;;;;12.40;7.00;;;12.90;99.90;;;;;;4990156;28;20231;-76
2023/10/01 06:03:42;;;;;;;10.50;7.17;;;12.90;99.90;;;;;;4997244;28;20265;-76
2023/10/01 06:06:10;;;;;;;11.73;7.27;;;13.00;99.90;;;;;;4987738;28;20377;-76
2023/10/01 06:08:46;;;;;;;12.90;7.37;;;13.00;99.90;;;;;;4988607;28;20739;-76
2023/10/01 06:11:15;;;;;;;13.63;7.63;;;13.00;99.90;;;;;;4979841;28;20240;-76
2023/10/01 06:13:49;;;;;;;11.80;7.37;;;13.10;99.90;;;;;;5005710;28;20220;-76
2023/10/01 06:16:22;;;;;;;11.60;7.07;;;13.10;99.90;;;;;;5005201;28;20330;-76
2023/10/01 06:18:52;;;;;;;16.57;7.33;;;13.10;99.90;;;;;;5006505;28;20257;-75
2023/10/01 06:21:19;;;;;;;12.07;7.67;;;13.20;99.90;;;;;;5005539;28;20314;-76
2023/10/01 06:23:52;;;;;;;12.27;8.07;;;13.20;99.90;;;;;;4988441;28;20883;-76
2023/10/01 06:26:22;;;;;;;13.33;7.83;;;13.20;99.90;;;;;;4982721;28;20236;-76
2023/10/01 06:28:49;;;;;;;12.17;7.57;;;13.20;99.90;;;;;;4978210;28;20835;-76
2023/10/01 06:31:17;;;;;;;15.63;7.97;;;13.20;99.90;;;;;;4986454;28;20251;-75
2023/10/01 06:33:45;;;;;;;12.40;8.43;;;13.30;99.90;;;;;;4970387;28;20234;-77
2023/10/01 06:36:19;;;;;;;11.97;7.73;;;13.30;99.90;;;;;;4960069;28;20250;-78
2023/10/01 06:38:47;;;;;;;15.03;8.30;;;13.30;99.90;;;;;;4962436;28;20670;-78
2023/10/01 06:41:16;;;;;;;12.43;7.80;;;13.40;99.90;;;;;;4988482;28;20223;-78
2023/10/01 06:43:54;;;;;;;19.30;8.80;;;13.40;99.90;;;;;;4969449;28;20237;-77
2023/10/01 06:46:23;;;;;;;15.03;8.23;;;13.50;99.90;;;;;;4967257;28;20251;-77
2023/10/01 06:48:50;;;;;;;11.10;7.93;;;13.50;99.90;;;;;;4984857;28;20306;-78
2023/10/01 06:51:24;;;;;;;13.37;8.97;;;13.60;99.90;;;;;;4985538;28;20635;-77
2023/10/01 06:53:58;;;;;;;14.13;8.80;;;13.60;99.90;;;;;;4969478;28;20231;-77
2023/10/01 06:56:26;;;;;;;15.10;9.60;;;13.70;99.90;;;;;;4968499;28;20238;-77
2023/10/01 06:59:13;;;;;;;14.03;8.43;;;13.70;99.90;;;;;;4969052;28;20993;-77
2023/10/01 07:01:48;;;;;;;14.10;9.07;;;13.80;99.90;;;;;;4998958;28;20235;-76
2023/10/01 07:04:17;;;;;;;13.97;8.80;;;13.90;99.90;;;;;;5005139;28;20237;-76
2023/10/01 07:06:48;;;;;;;15.87;8.40;;;13.90;99.90;;;;;;5005790;28;20241;-76
2023/10/01 07:09:27;;;;;;;15.50;9.07;;;13.90;99.90;;;;;;5004601;28;20235;-77
2023/10/01 07:11:56;;;;;;;14.80;9.17;;;14.00;99.90;;;;;;5004664;28;20231;-76
2023/10/01 07:14:30;;;;;;;11.30;9.20;;;14.00;99.90;;;;;;4987757;28;20939;-77
2023/10/01 07:17:00;;;;;;;13.73;9.43;;;14.10;99.90;;;;;;4987458;28;20229;-76
2023/10/01 07:19:27;;;;;;;13.77;8.57;;;14.10;99.90;;;;;;4986234;28;20291;-77
2023/10/01 07:21:58;;;;;;;13.83;9.27;;;14.20;99.90;;;;;;4982011;28;20326;-76
2023/10/01 07:24:27;;;;;;;15.60;9.27;;;14.20;99.90;;;;;;4987154;28;20354;-78
2023/10/01 07:27:03;;;;;;;12.60;8.73;;;14.20;99.90;;;;;;4982743;28;20233;-77
2023/10/01 07:29:33;;;;;;;14.77;9.47;;;14.30;99.90;;;;;;4979053;28;20885;-77
2023/10/01 07:32:01;;;;;;;15.57;9.70;;;14.40;99.90;;;;;;4987962;28;20239;-77
2023/10/01 07:34:31;;;;;;;14.70;9.17;;;14.40;99.90;;;;;;4988736;28;20702;-78
2023/10/01 07:37:00;;;;;;;15.80;9.43;;;14.50;99.90;;;;;;4975049;28;20225;-78
2023/10/01 07:39:32;;;;;;;17.40;9.53;;;14.60;99.90;;;;;;4986685;28;20255;-77
2023/10/01 07:42:00;;;;;;;15.20;9.20;;;14.70;99.90;;;;;;4982145;28;20321;-78
2023/10/01 07:44:28;;;;;;;15.60;8.93;;;14.70;99.90;;;;;;4989046;28;20242;-78
2023/10/01 07:46:55;;;;;;;15.33;9.87;;;14.80;99.90;;;;;;4972178;28;20256;-77
2023/10/01 07:49:22;;;;;;;12.57;8.37;;;14.90;99.90;;;;;;4986670;28;20239;-77
2023/10/01 07:51:50;;;;;;;12.63;8.87;;;15.00;99.90;;;;;;4986204;28;20219;-77
2023/10/01 07:54:22;;;;;;;14.53;9.13;;;15.10;99.90;;;;;;4986389;28;20417;-77
2023/10/01 07:56:51;;;;;;;16.03;9.10;;;15.20;99.90;;;;;;4968849;28;20721;-78
2023/10/01 07:59:28;;;;;;;13.80;8.70;;;15.30;99.90;;;;;;4968437;28;20239;-78
2023/10/01 08:02:19;;;;;;;13.53;9.07;;;15.40;99.90;;;;;;4986129;28;20223;-78
2023/10/01 08:04:57;;;;;;;16.57;9.60;;;15.40;99.90;;;;;;4964065;28;20242;-78
2023/10/01 08:07:30;;;;;;;12.00;8.70;;;15.60;99.90;;;;;;4969017;28;20227;-78
2023/10/01 08:10:03;;;;;;;13.47;8.73;;;15.60;99.90;;;;;;4986938;28;20255;-78
2023/10/01 08:12:40;;;;;;;13.33;8.97;;;15.70;99.90;;;;;;4968735;28;20276;-78
2023/10/01 08:15:37;;;;;;;13.23;8.57;;;15.80;99.90;;;;;;4967702;28;20220;-78
2023/10/01 08:20:57;;;;;;;13.53;7.77;;;15.90;99.90;;;;;;4976305;28;20322;-77
2023/10/01 08:23:27;;;;;;;11.73;8.80;;;16.00;99.90;;;;;;4999575;28;20227;-77
2023/10/01 08:25:56;;;;;;;14.60;8.63;;;16.00;99.90;;;;;;5004519;28;20220;-77
2023/10/01 08:28:26;;;;;;;15.47;8.90;;;16.10;99.90;;;;;;4985468;28;20230;-77
2023/10/01 08:31:20;;;;;;;14.17;8.13;;;16.10;99.90;;;;;;5004471;28;20231;-77
2023/10/01 08:33:51;;;;;;;12.57;8.20;;;16.20;99.90;;;;;;5004163;28;20336;-78
2023/10/01 08:36:24;;;;;;;15.60;8.30;;;16.30;99.90;;;;;;5004375;28;20699;-77
2023/10/01 08:41:35;;;;;;;11.80;7.60;;;16.30;99.90;;;;;;4985431;28;20245;-77
2023/10/01 08:44:10;;;;;;;10.50;7.87;;;16.50;99.90;;;;;;4987110;28;20236;-77
2023/10/01 08:46:39;;;;;;;12.50;8.03;;;16.60;99.90;;;;;;4986251;28;20725;-77
2023/10/01 08:49:22;;;;;;;12.93;7.40;;;16.80;99.90;;;;;;4986189;28;20807;-78
2023/10/01 08:51:52;;;;;;;11.30;7.40;;;16.80;99.90;;;;;;5004550;28;20299;-77
2023/10/01 08:54:23;;;;;;;10.50;7.23;;;16.90;99.90;;;;;;4986596;28;20600;-79
2023/10/01 08:56:52;;;;;;;11.90;6.77;;;17.00;99.90;;;;;;5004140;28;20231;-77
2023/10/01 08:59:24;;;;;;;13.90;7.43;;;17.10;99.90;;;;;;5004103;28;20225;-77
2023/10/01 09:01:52;;;;;;;10.57;6.97;;;17.20;99.90;;;;;;4986150;28;20228;-77
2023/10/01 09:04:42;;;;;;;11.10;7.13;;;17.30;99.90;;;;;;4985842;28;20267;-79
2023/10/01 09:07:11;;;;;;;9.50;6.53;;;17.40;99.90;;;;;;4985872;28;20221;-76
2023/10/01 09:12:34;;;;;;;13.37;6.67;;;17.50;99.90;;;;;;5129707;27;20595;-78
2023/10/01 09:15:01;;;;;;;11.43;7.37;;;17.60;99.90;;;;;;5117590;27;20224;-76
2023/10/01 09:17:40;;;;;;;8.97;6.73;;;17.80;99.90;;;;;;5116795;27;20345;-78
2023/10/01 09:20:09;;;;;;;7.37;6.00;;;17.80;99.90;;;;;;5122921;27;20220;-78
2023/10/01 09:22:42;;;;;;;10.37;6.00;;;18.00;99.90;;;;;;5121095;27;20228;-78
2023/10/01 09:25:15;;;;;;;10.57;5.97;;;18.10;99.90;;;;;;5120721;27;20243;-77
2023/10/01 09:27:57;;;;;;;11.50;6.27;;;18.20;99.90;;;;;;5121986;27;20306;-77
2023/10/01 09:30:26;;;;;;;9.60;5.73;;;18.20;99.90;;;;;;5120115;27;20236;-77
2023/10/01 09:32:54;;;;;;;10.57;5.30;;;18.30;99.90;;;;;;5122327;27;20635;-78
2023/10/01 09:35:31;;;;;;;7.47;4.97;;;18.40;99.90;;;;;;5120268;27;20293;-77
2023/10/01 09:38:11;;;;;;;8.27;5.13;;;18.50;99.90;;;;;;5120927;28;20332;-77
2023/10/01 09:40:41;;;;;;;6.13;5.00;;;18.60;99.90;;;;;;5122343;27;20594;-77
2023/10/01 09:43:18;;;;;;;8.77;4.60;;;18.60;99.90;;;;;;5121357;27;20225;-77
2023/10/01 09:45:46;;;;;;;9.03;4.90;;;18.70;99.90;;;;;;5120120;27;20231;-78
2023/10/01 09:48:29;;;;;;;8.57;4.40;;;18.80;99.90;;;;;;5120560;27;20243;-77
2023/10/01 09:51:03;;;;;;;9.03;4.27;;;18.90;99.90;;;;;;5121069;27;20256;-77
2023/10/01 09:53:37;;;;;;;7.93;4.32;;;19.00;99.90;;;;;;5121625;27;20305;-77
2023/10/01 09:56:05;;;;;;;8.23;4.55;;;19.10;99.90;;;;;;5120494;27;20730;-77
2023/10/01 09:58:34;;;;;;;6.18;4.13;;;19.20;99.90;;;;;;5121838;27;20230;-78
2023/10/01 10:01:01;;;;;;;9.38;5.00;;;19.20;99.90;;;;;;5120149;28;20618;-77
2023/10/01 10:03:36;;;;;;;9.35;5.25;;;19.20;99.90;;;;;;5119260;27;20225;-78
2023/10/01 10:06:06;;;;;;;8.23;4.43;;;19.30;99.90;;;;;;5120388;27;20282;-77
2023/10/01 10:08:34;;;;;;;10.95;5.60;;;19.30;99.90;;;;;;5120372;28;20243;-78
2023/10/01 10:11:06;;;;;;;11.80;6.03;;;19.30;99.90;;;;;;5120148;27;20225;-78
2023/10/01 10:13:38;;;;;;;12.73;5.70;;;19.30;99.90;;;;;;5121684;27;20688;-77
2023/10/01 10:19:09;;;;;;;11.38;6.40;;;19.20;99.90;;;;;;5114094;28;20245;-78
2023/10/01 10:22:09;;;;;;;11.40;6.30;;;19.20;99.90;;;;;;5118216;27;20225;-78
2023/10/01 10:24:45;;;;;;;9.85;5.60;;;19.20;99.90;;;;;;5102936;28;20257;-78
2023/10/01 10:27:17;;;;;;;8.32;5.18;;;19.20;99.90;;;;;;5104612;28;20716;-77
2023/10/01 10:30:14;;;;;;;11.23;5.70;;;19.20;99.90;;;;;;5106381;28;20245;-77
2023/10/01 10:33:29;;;;;;;9.60;5.15;;;19.30;99.90;;;;;;5104065;28;20233;-77
2023/10/01 10:36:57;;;;;;;10.02;5.45;;;19.30;99.90;;;;;;5106416;27;20234;-78
2023/10/01 10:40:04;;;;;;;8.98;5.18;;;19.50;99.90;;;;;;5104433;28;20245;-77
2023/10/01 10:42:33;;;;;;;10.73;5.07;;;19.50;99.90;;;;;;5104903;28;20233;-78
2023/10/01 10:45:21;;;;;;;9.27;4.70;;;19.60;99.90;;;;;;5105614;28;20324;-78
2023/10/01 10:47:58;;;;;;;8.85;4.40;;;19.60;99.90;;;;;;5098781;28;21005;-78
2023/10/01 10:50:49;;;;;;;9.23;4.60;;;19.70;99.90;;;;;;5087348;28;20321;-78
2023/10/01 10:53:18;;;;;;;8.23;4.22;;;19.80;99.90;;;;;;5088020;28;20223;-78
2023/10/01 10:55:55;;;;;;;10.93;4.80;;;20.00;99.90;;;;;;5088554;28;20279;-78
2023/10/01 10:58:25;;;;;;;9.63;4.43;;;20.20;99.90;;;;;;5087410;28;20234;-79
2023/10/01 11:00:55;;;;;;;9.05;4.10;;;20.30;99.90;;;;;;5087302;28;20568;-78
2023/10/01 11:03:40;;;;;;;9.45;5.07;;;20.50;99.90;;;;;;5086318;28;20226;-79
2023/10/01 11:06:21;;;;;;;7.78;4.30;;;20.50;99.90;;;;;;5085215;28;20305;-77
2023/10/01 11:08:52;;;;;;;8.88;4.28;;;20.60;99.90;;;;;;5085005;28;20223;-77
2023/10/01 11:11:28;;;;;;;8.43;3.85;;;20.70;99.90;;;;;;5081880;28;20979;-78
2023/10/01 11:14:01;;;;;;;8.73;4.15;;;20.60;99.90;;;;;;5085488;28;20229;-77
2023/10/01 11:16:37;;;;;;;7.20;4.22;;;20.70;99.90;;;;;;5086091;28;20886;-78
2023/10/01 11:19:13;;;;;;;9.38;4.40;;;20.60;99.90;;;;;;5106190;28;20817;-78
2023/10/01 11:21:54;;;;;;;7.65;4.32;;;20.70;99.90;;;;;;5105236;28;20890;-77
2023/10/01 11:24:29;;;;;;;8.45;4.32;;;20.70;99.90;;;;;;5104679;28;20821;-77
2023/10/01 11:27:25;;;;;;;8.27;4.40;;;20.70;99.90;;;;;;5104708;28;20221;-77
2023/10/01 11:30:15;;;;;;;9.02;5.03;;;20.80;99.90;;;;;;5064704;27;20222;-77
2023/10/01 11:33:12;;;;;;;10.93;5.00;;;20.90;99.90;;;;;;5104405;28;20345;-78
2023/10/01 11:35:41;;;;;;;8.35;4.63;;;21.00;99.90;;;;;;5106331;27;20214;-78
2023/10/01 11:38:09;;;;;;;10.32;5.53;;;21.20;99.90;;;;;;5107808;28;20335;-79
2023/10/01 11:43:28;;;;;;;10.77;4.70;;;21.40;99.90;;;;;;5105894;28;20967;-78
2023/10/01 11:46:23;;;;;;;10.02;5.30;;;21.40;99.90;;;;;;5107771;27;20254;-79
2023/10/01 11:49:03;;;;;;;9.70;5.03;;;21.40;99.90;;;;;;5105165;28;20481;-78
2023/10/01 11:51:44;;;;;;;11.48;4.50;;;21.30;99.80;;;;;;5106258;28;20428;-78
2023/10/01 11:54:13;;;;;;;8.73;4.32;;;21.20;99.80;;;;;;5101222;28;20353;-79
2023/10/01 11:56:45;;;;;;;9.75;5.03;;;21.10;99.90;;;;;;5069285;28;20223;-78
2023/10/01 11:59:23;;;;;;;11.63;5.47;;;20.90;99.90;;;;;;5063350;28;20433;-78
2023/10/01 12:01:52;;;;;;;10.60;5.05;;;20.70;99.90;;;;;;5069081;28;20227;-78
2023/10/01 12:07:15;;;;;;;12.05;6.03;;;20.20;99.90;;;;;;5063536;28;20736;-78
2023/10/01 12:09:43;;;;;;;11.48;5.85;;;20.00;99.90;;;;;;5064225;28;20226;-78
2023/10/01 12:12:10;;;;;;;13.82;6.25;;;19.60;99.90;;;;;;5063287;28;20227;-77
2023/10/01 12:14:52;;;;;;;11.70;6.38;;;19.30;99.90;;;;;;5064727;28;20705;-76
2023/10/01 12:17:23;;;;;;;10.60;6.55;;;19.00;99.90;;;;;;5061264;28;20219;-76
2023/10/01 12:19:57;;;;;;;11.10;6.57;;;18.80;99.90;;;;;;5061625;28;20250;-76
2023/10/01 12:22:27;;;;;;;11.30;6.67;;;18.60;99.90;;;;;;5061365;28;20250;-76
2023/10/01 12:24:58;;;;;;;11.97;7.03;;;18.40;99.90;;;;;;5061400;28;20735;-76
2023/10/01 12:27:47;;;;;;;11.87;6.93;;;18.20;99.90;;;;;;5062723;28;20356;-76
2023/10/01 12:33:03;;;;;;;15.43;6.87;;;17.90;99.90;;;;;;5052782;28;20246;-76
2023/10/01 12:35:32;;;;;;;15.43;8.33;;;17.70;99.90;;;;;;5063096;28;20326;-77
2023/10/01 12:38:22;;;;;;;11.53;7.47;;;17.60;99.90;;;;;;5063512;28;20224;-76
2023/10/01 12:40:52;;;;;;;12.37;7.57;;;17.40;99.90;;;;;;5062742;28;20222;-76
2023/10/01 12:43:39;;;;;;;12.77;7.47;;;17.30;99.90;;;;;;5061762;28;20219;-76
2023/10/01 12:46:09;;;;;;;11.30;7.43;;;17.20;99.90;;;;;;5074701;28;20229;-76
2023/10/01 12:48:38;;;;;;;15.30;7.17;;;17.00;99.90;;;;;;5081385;28;20306;-76
2023/10/01 12:51:07;;;;;;;12.67;7.13;;;17.00;99.90;;;;;;5081910;28;20235;-76
2023/10/01 12:53:35;;;;;;;13.33;7.43;;;16.80;99.90;;;;;;5079631;28;20223;-77
2023/10/01 12:56:03;;;;;;;13.27;8.00;;;16.70;99.90;;;;;;5064025;28;20264;-77
2023/10/01 12:58:39;;;;;;;12.97;7.20;;;16.70;99.90;;;;;;5087775;27;20244;-78
2023/10/01 13:01:23;;;;;;;13.17;7.17;;;16.60;99.90;;;;;;5078557;28;20270;-77
2023/10/01 13:03:51;;;;;;;11.27;7.17;;;16.50;99.90;;;;;;5094815;28;20221;-78
2023/10/01 13:06:18;;;;;;;13.07;7.20;;;16.40;99.90;;;;;;5081318;28;20404;-79
2023/10/01 13:08:45;;;;;;;12.97;7.17;;;16.40;99.90;;;;;;5083105;28;20801;-78
2023/10/01 13:11:46;;;;;;;12.67;6.97;;;16.30;99.90;;;;;;5082992;28;20747;-78
2023/10/01 13:14:16;;;;;;;11.07;7.33;;;16.30;99.90;;;;;;5073977;28;20213;-78
2023/10/01 13:16:49;;;;;;;10.27;6.37;;;16.20;99.90;;;;;;5071981;28;20306;-79
2023/10/01 13:19:17;;;;;;;11.63;6.70;;;16.20;99.90;;;;;;5090288;28;20716;-79
2023/10/01 13:21:47;;;;;;;10.10;6.80;;;16.20;99.90;;;;;;5091337;28;20227;-77
2023/10/01 13:24:14;;;;;;;12.43;6.93;;;16.20;99.90;;;;;;5087748;28;20222;-77
2023/10/01 13:26:41;;;;;;;9.67;7.03;;;16.20;99.90;;;;;;5084117;28;20283;-77
2023/10/01 13:29:28;;;;;;;10.37;7.33;;;16.20;99.90;;;;;;5083894;28;20214;-78
2023/10/01 13:32:02;;;;;;;10.43;6.67;;;16.10;99.90;;;;;;5082955;28;20321;-78
2023/10/01 13:34:37;;;;;;;8.97;7.03;;;16.10;99.90;;;;;;5082575;28;20229;-77
2023/10/01 13:37:42;;;;;;;8.60;6.50;;;16.10;99.90;;;;;;5086501;28;20216;-78
2023/10/01 13:40:10;;;;;;;9.20;6.80;;;16.00;99.90;;;;;;5084084;28;20244;-77
2023/10/01 14:10:38;;;;;;;12.57;7.90;;;15.70;99.90;;;;;;5096008;28;20225;-77